sensor_id;sensor_type;location;lat;lon;timestamp;P1;durP1;ratioP1;P2;durP2;ratioP2
51485;SDS011;37565;51.352;6.412;2022-11-13T00:01:06;1.30;;;1.10;;
51485;SDS011;37565;51.352;6.412;2022-11-13T00:03:34;1.55;;;1.13;;
51485;SDS011;37565;51.352;6.412;2022-11-13T00:06:02;2.13;;;1.30;;
51485;SDS011;37565;51.352;6.412;2022-11-13T00:08:30;1.50;;;1.05;;
51485;SDS011;37565;51.352;6.412;2022-11-13T00:11:01;2.90;;;1.20;;
51485;SDS011;37565;51.352;6.412;2022-11-13T00:13:30;2.55;;;1.30;;
51485;SDS011;37565;51.352;6.412;2022-11-13T00:15:59;1.70;;;1.40;;
51485;SDS011;37565;51.352;6.412;2022-11-13T00:18:29;2.58;;;1.13;;
51485;SDS011;37565;51.352;6.412;2022-11-13T00:20:57;4.75;;;1.10;;
51485;SDS011;37565;51.352;6.412;2022-11-13T00:23:31;2.30;;;1.43;;
51485;SDS011;37565;51.352;6.412;2022-11-13T00:26:06;2.10;;;1.23;;
51485;SDS011;37565;51.352;6.412;2022-11-13T00:28:35;5.63;;;1.20;;
51485;SDS011;37565;51.352;6.412;2022-11-13T00:31:04;2.70;;;1.50;;
51485;SDS011;37565;51.352;6.412;2022-11-13T00:33:33;2.70;;;1.50;;
51485;SDS011;37565;51.352;6.412;2022-11-13T00:36:21;5.35;;;1.30;;
51485;SDS011;37565;51.352;6.412;2022-11-13T00:38:52;2.75;;;1.13;;
51485;SDS011;37565;51.352;6.412;2022-11-13T00:41:21;3.60;;;1.20;;
51485;SDS011;37565;51.352;6.412;2022-11-13T00:43:50;2.47;;;1.35;;
51485;SDS011;37565;51.352;6.412;2022-11-13T00:46:18;3.65;;;1.33;;
51485;SDS011;37565;51.352;6.412;2022-11-13T00:48:46;3.60;;;1.45;;
51485;SDS011;37565;51.352;6.412;2022-11-13T00:51:14;3.00;;;1.10;;
51485;SDS011;37565;51.352;6.412;2022-11-13T00:53:42;4.50;;;1.30;;
51485;SDS011;37565;51.352;6.412;2022-11-13T00:56:10;1.30;;;1.20;;
51485;SDS011;37565;51.352;6.412;2022-11-13T00:58:39;2.75;;;1.42;;
51485;SDS011;37565;51.352;6.412;2022-11-13T01:01:07;4.80;;;1.10;;
51485;SDS011;37565;51.352;6.412;2022-11-13T01:03:37;3.03;;;1.20;;
51485;SDS011;37565;51.352;6.412;2022-11-13T01:06:09;1.80;;;1.38;;
51485;SDS011;37565;51.352;6.412;2022-11-13T01:08:39;1.23;;;1.10;;
51485;SDS011;37565;51.352;6.412;2022-11-13T01:11:08;4.28;;;1.48;;
51485;SDS011;37565;51.352;6.412;2022-11-13T01:13:37;2.83;;;1.50;;
51485;SDS011;37565;51.352;6.412;2022-11-13T01:16:07;2.92;;;1.23;;
51485;SDS011;37565;51.352;6.412;2022-11-13T01:18:36;2.90;;;1.30;;
51485;SDS011;37565;51.352;6.412;2022-11-13T01:21:07;1.88;;;1.20;;
51485;SDS011;37565;51.352;6.412;2022-11-13T01:23:37;2.45;;;1.23;;
51485;SDS011;37565;51.352;6.412;2022-11-13T01:26:06;2.15;;;1.63;;
51485;SDS011;37565;51.352;6.412;2022-11-13T01:28:35;6.72;;;2.03;;
51485;SDS011;37565;51.352;6.412;2022-11-13T01:31:04;1.10;;;1.00;;
51485;SDS011;37565;51.352;6.412;2022-11-13T01:33:34;2.28;;;1.20;;
51485;SDS011;37565;51.352;6.412;2022-11-13T01:36:04;1.40;;;1.17;;
51485;SDS011;37565;51.352;6.412;2022-11-13T01:38:34;1.63;;;1.40;;
51485;SDS011;37565;51.352;6.412;2022-11-13T01:41:03;3.47;;;1.20;;
51485;SDS011;37565;51.352;6.412;2022-11-13T01:43:35;1.38;;;1.27;;
51485;SDS011;37565;51.352;6.412;2022-11-13T01:46:10;4.32;;;1.30;;
51485;SDS011;37565;51.352;6.412;2022-11-13T01:48:43;2.28;;;1.50;;
51485;SDS011;37565;51.352;6.412;2022-11-13T01:51:15;2.75;;;1.20;;
51485;SDS011;37565;51.352;6.412;2022-11-13T01:56:17;1.92;;;1.40;;
51485;SDS011;37565;51.352;6.412;2022-11-13T01:58:46;2.05;;;1.73;;
51485;SDS011;37565;51.352;6.412;2022-11-13T02:01:21;1.33;;;1.23;;
51485;SDS011;37565;51.352;6.412;2022-11-13T02:03:49;6.90;;;1.63;;
51485;SDS011;37565;51.352;6.412;2022-11-13T02:06:18;2.15;;;1.30;;
51485;SDS011;37565;51.352;6.412;2022-11-13T02:08:46;2.00;;;1.30;;
51485;SDS011;37565;51.352;6.412;2022-11-13T02:11:17;2.40;;;1.20;;
51485;SDS011;37565;51.352;6.412;2022-11-13T02:13:46;1.95;;;1.33;;
51485;SDS011;37565;51.352;6.412;2022-11-13T02:16:14;8.13;;;1.55;;
51485;SDS011;37565;51.352;6.412;2022-11-13T02:18:44;1.67;;;1.38;;
51485;SDS011;37565;51.352;6.412;2022-11-13T02:21:15;1.90;;;1.33;;
51485;SDS011;37565;51.352;6.412;2022-11-13T02:23:53;3.15;;;1.30;;
51485;SDS011;37565;51.352;6.412;2022-11-13T02:26:28;2.45;;;1.63;;
51485;SDS011;37565;51.352;6.412;2022-11-13T02:28:57;1.80;;;1.42;;
51485;SDS011;37565;51.352;6.412;2022-11-13T02:31:25;2.03;;;1.45;;
51485;SDS011;37565;51.352;6.412;2022-11-13T02:33:53;1.98;;;1.38;;
51485;SDS011;37565;51.352;6.412;2022-11-13T02:36:21;1.63;;;1.40;;
51485;SDS011;37565;51.352;6.412;2022-11-13T02:38:51;2.50;;;1.50;;
51485;SDS011;37565;51.352;6.412;2022-11-13T02:41:21;1.60;;;1.45;;
51485;SDS011;37565;51.352;6.412;2022-11-13T02:43:51;3.33;;;1.38;;
51485;SDS011;37565;51.352;6.412;2022-11-13T02:46:18;1.50;;;1.40;;
51485;SDS011;37565;51.352;6.412;2022-11-13T02:48:46;1.65;;;1.55;;
51485;SDS011;37565;51.352;6.412;2022-11-13T02:51:14;1.85;;;1.23;;
51485;SDS011;37565;51.352;6.412;2022-11-13T02:53:42;2.40;;;1.40;;
51485;SDS011;37565;51.352;6.412;2022-11-13T02:56:10;2.42;;;1.40;;
51485;SDS011;37565;51.352;6.412;2022-11-13T02:58:38;2.97;;;1.40;;
51485;SDS011;37565;51.352;6.412;2022-11-13T03:01:07;2.10;;;1.60;;
51485;SDS011;37565;51.352;6.412;2022-11-13T03:03:35;3.05;;;1.58;;
51485;SDS011;37565;51.352;6.412;2022-11-13T03:06:22;2.75;;;1.33;;
51485;SDS011;37565;51.352;6.412;2022-11-13T03:08:50;1.58;;;1.42;;
51485;SDS011;37565;51.352;6.412;2022-11-13T03:11:18;1.95;;;1.77;;
51485;SDS011;37565;51.352;6.412;2022-11-13T03:13:46;2.10;;;1.40;;
51485;SDS011;37565;51.352;6.412;2022-11-13T03:16:16;1.67;;;1.20;;
51485;SDS011;37565;51.352;6.412;2022-11-13T03:18:44;2.30;;;1.40;;
51485;SDS011;37565;51.352;6.412;2022-11-13T03:21:13;1.92;;;1.67;;
51485;SDS011;37565;51.352;6.412;2022-11-13T03:23:42;2.53;;;1.52;;
51485;SDS011;37565;51.352;6.412;2022-11-13T03:26:12;2.40;;;1.50;;
51485;SDS011;37565;51.352;6.412;2022-11-13T03:28:41;2.25;;;1.52;;
51485;SDS011;37565;51.352;6.412;2022-11-13T03:31:09;1.42;;;1.33;;
51485;SDS011;37565;51.352;6.412;2022-11-13T03:33:39;2.90;;;1.27;;
51485;SDS011;37565;51.352;6.412;2022-11-13T03:36:07;1.40;;;1.30;;
51485;SDS011;37565;51.352;6.412;2022-11-13T03:38:37;1.35;;;1.25;;
51485;SDS011;37565;51.352;6.412;2022-11-13T03:41:05;1.95;;;1.75;;
51485;SDS011;37565;51.352;6.412;2022-11-13T03:43:33;6.20;;;1.40;;
51485;SDS011;37565;51.352;6.412;2022-11-13T03:46:01;5.07;;;1.55;;
51485;SDS011;37565;51.352;6.412;2022-11-13T03:48:29;1.67;;;1.35;;
51485;SDS011;37565;51.352;6.412;2022-11-13T03:50:59;1.77;;;1.42;;
51485;SDS011;37565;51.352;6.412;2022-11-13T03:53:27;1.73;;;1.20;;
51485;SDS011;37565;51.352;6.412;2022-11-13T03:55:55;1.50;;;1.40;;
51485;SDS011;37565;51.352;6.412;2022-11-13T03:58:24;2.45;;;1.38;;
51485;SDS011;37565;51.352;6.412;2022-11-13T04:00:53;1.88;;;1.58;;
51485;SDS011;37565;51.352;6.412;2022-11-13T04:03:21;1.60;;;1.48;;
51485;SDS011;37565;51.352;6.412;2022-11-13T04:05:49;2.10;;;1.67;;
51485;SDS011;37565;51.352;6.412;2022-11-13T04:08:19;2.03;;;1.50;;
51485;SDS011;37565;51.352;6.412;2022-11-13T04:10:47;1.50;;;1.40;;
51485;SDS011;37565;51.352;6.412;2022-11-13T04:13:15;1.33;;;1.23;;
51485;SDS011;37565;51.352;6.412;2022-11-13T04:15:43;3.38;;;1.80;;
51485;SDS011;37565;51.352;6.412;2022-11-13T04:18:10;2.10;;;1.70;;
51485;SDS011;37565;51.352;6.412;2022-11-13T04:20:38;2.00;;;1.60;;
51485;SDS011;37565;51.352;6.412;2022-11-13T04:23:06;1.63;;;1.52;;
51485;SDS011;37565;51.352;6.412;2022-11-13T04:25:38;1.42;;;1.33;;
51485;SDS011;37565;51.352;6.412;2022-11-13T04:28:07;1.40;;;1.30;;
51485;SDS011;37565;51.352;6.412;2022-11-13T04:30:35;1.60;;;1.42;;
51485;SDS011;37565;51.352;6.412;2022-11-13T04:33:03;4.60;;;1.63;;
51485;SDS011;37565;51.352;6.412;2022-11-13T04:35:32;2.95;;;1.48;;
51485;SDS011;37565;51.352;6.412;2022-11-13T04:38:00;2.03;;;1.60;;
51485;SDS011;37565;51.352;6.412;2022-11-13T04:40:28;1.67;;;1.58;;
51485;SDS011;37565;51.352;6.412;2022-11-13T04:42:58;2.30;;;1.88;;
51485;SDS011;37565;51.352;6.412;2022-11-13T04:45:25;1.55;;;1.45;;
51485;SDS011;37565;51.352;6.412;2022-11-13T04:47:53;1.73;;;1.63;;
51485;SDS011;37565;51.352;6.412;2022-11-13T04:50:21;2.92;;;1.65;;
51485;SDS011;37565;51.352;6.412;2022-11-13T04:52:49;2.33;;;1.52;;
51485;SDS011;37565;51.352;6.412;2022-11-13T04:55:17;1.60;;;1.50;;
51485;SDS011;37565;51.352;6.412;2022-11-13T04:57:45;3.40;;;1.30;;
51485;SDS011;37565;51.352;6.412;2022-11-13T05:00:18;1.88;;;1.63;;
51485;SDS011;37565;51.352;6.412;2022-11-13T05:02:46;1.60;;;1.50;;
51485;SDS011;37565;51.352;6.412;2022-11-13T05:05:14;1.50;;;1.40;;
51485;SDS011;37565;51.352;6.412;2022-11-13T05:07:42;1.27;;;1.13;;
51485;SDS011;37565;51.352;6.412;2022-11-13T05:10:09;2.10;;;1.88;;
51485;SDS011;37565;51.352;6.412;2022-11-13T05:12:38;3.15;;;1.50;;
51485;SDS011;37565;51.352;6.412;2022-11-13T05:15:08;1.67;;;1.58;;
51485;SDS011;37565;51.352;6.412;2022-11-13T05:17:37;3.13;;;1.73;;
51485;SDS011;37565;51.352;6.412;2022-11-13T05:20:05;1.60;;;1.50;;
51485;SDS011;37565;51.352;6.412;2022-11-13T05:22:34;1.80;;;1.70;;
51485;SDS011;37565;51.352;6.412;2022-11-13T05:25:02;1.50;;;1.40;;
51485;SDS011;37565;51.352;6.412;2022-11-13T05:27:30;2.03;;;1.60;;
51485;SDS011;37565;51.352;6.412;2022-11-13T05:29:58;1.83;;;1.65;;
51485;SDS011;37565;51.352;6.412;2022-11-13T05:32:26;1.70;;;1.38;;
51485;SDS011;37565;51.352;6.412;2022-11-13T05:34:55;1.42;;;1.33;;
51485;SDS011;37565;51.352;6.412;2022-11-13T05:37:23;1.63;;;1.52;;
51485;SDS011;37565;51.352;6.412;2022-11-13T05:39:51;1.50;;;1.40;;
51485;SDS011;37565;51.352;6.412;2022-11-13T05:42:19;2.28;;;1.60;;
51485;SDS011;37565;51.352;6.412;2022-11-13T05:44:47;1.50;;;1.40;;
51485;SDS011;37565;51.352;6.412;2022-11-13T05:47:15;1.92;;;1.63;;
51485;SDS011;37565;51.352;6.412;2022-11-13T05:49:42;1.50;;;1.40;;
51485;SDS011;37565;51.352;6.412;2022-11-13T05:52:12;1.50;;;1.40;;
51485;SDS011;37565;51.352;6.412;2022-11-13T05:54:40;2.95;;;1.35;;
51485;SDS011;37565;51.352;6.412;2022-11-13T05:57:07;1.70;;;1.50;;
51485;SDS011;37565;51.352;6.412;2022-11-13T05:59:35;1.52;;;1.42;;
51485;SDS011;37565;51.352;6.412;2022-11-13T06:02:03;1.83;;;1.70;;
51485;SDS011;37565;51.352;6.412;2022-11-13T06:04:31;1.45;;;1.35;;
51485;SDS011;37565;51.352;6.412;2022-11-13T06:06:59;1.70;;;1.58;;
51485;SDS011;37565;51.352;6.412;2022-11-13T06:09:29;1.50;;;1.40;;
51485;SDS011;37565;51.352;6.412;2022-11-13T06:11:57;1.70;;;1.40;;
51485;SDS011;37565;51.352;6.412;2022-11-13T06:14:24;1.63;;;1.52;;
51485;SDS011;37565;51.352;6.412;2022-11-13T06:16:52;1.40;;;1.30;;
51485;SDS011;37565;51.352;6.412;2022-11-13T06:19:20;2.65;;;1.58;;
51485;SDS011;37565;51.352;6.412;2022-11-13T06:21:48;1.85;;;1.52;;
51485;SDS011;37565;51.352;6.412;2022-11-13T06:24:16;1.70;;;1.60;;
51485;SDS011;37565;51.352;6.412;2022-11-13T06:26:45;1.67;;;1.58;;
51485;SDS011;37565;51.352;6.412;2022-11-13T06:29:13;1.42;;;1.33;;
51485;SDS011;37565;51.352;6.412;2022-11-13T06:31:41;2.42;;;1.50;;
51485;SDS011;37565;51.352;6.412;2022-11-13T06:34:09;14.48;;;1.83;;
51485;SDS011;37565;51.352;6.412;2022-11-13T06:36:37;1.52;;;1.42;;
51485;SDS011;37565;51.352;6.412;2022-11-13T06:39:05;2.03;;;1.48;;
51485;SDS011;37565;51.352;6.412;2022-11-13T06:41:36;1.70;;;1.60;;
51485;SDS011;37565;51.352;6.412;2022-11-13T06:44:06;1.67;;;1.58;;
51485;SDS011;37565;51.352;6.412;2022-11-13T06:46:34;1.65;;;1.25;;
51485;SDS011;37565;51.352;6.412;2022-11-13T06:49:02;1.83;;;1.58;;
51485;SDS011;37565;51.352;6.412;2022-11-13T06:51:30;1.92;;;1.45;;
51485;SDS011;37565;51.352;6.412;2022-11-13T06:53:58;1.63;;;1.50;;
51485;SDS011;37565;51.352;6.412;2022-11-13T06:56:26;1.60;;;1.30;;
51485;SDS011;37565;51.352;6.412;2022-11-13T06:58:54;2.20;;;1.73;;
51485;SDS011;37565;51.352;6.412;2022-11-13T07:01:24;2.03;;;1.38;;
51485;SDS011;37565;51.352;6.412;2022-11-13T07:03:52;1.90;;;1.52;;
51485;SDS011;37565;51.352;6.412;2022-11-13T07:06:21;1.50;;;1.40;;
51485;SDS011;37565;51.352;6.412;2022-11-13T07:08:50;1.77;;;1.50;;
51485;SDS011;37565;51.352;6.412;2022-11-13T07:11:19;1.48;;;1.38;;
51485;SDS011;37565;51.352;6.412;2022-11-13T07:13:48;1.67;;;1.52;;
51485;SDS011;37565;51.352;6.412;2022-11-13T07:16:16;1.67;;;1.50;;
51485;SDS011;37565;51.352;6.412;2022-11-13T07:18:49;1.45;;;1.35;;
51485;SDS011;37565;51.352;6.412;2022-11-13T07:21:18;2.75;;;1.60;;
51485;SDS011;37565;51.352;6.412;2022-11-13T07:23:47;2.97;;;1.40;;
51485;SDS011;37565;51.352;6.412;2022-11-13T07:26:15;1.83;;;1.55;;
51485;SDS011;37565;51.352;6.412;2022-11-13T07:28:44;1.92;;;1.52;;
51485;SDS011;37565;51.352;6.412;2022-11-13T07:31:13;1.85;;;1.52;;
51485;SDS011;37565;51.352;6.412;2022-11-13T07:33:42;1.98;;;1.50;;
51485;SDS011;37565;51.352;6.412;2022-11-13T07:36:11;1.50;;;1.30;;
51485;SDS011;37565;51.352;6.412;2022-11-13T07:38:39;1.50;;;1.40;;
51485;SDS011;37565;51.352;6.412;2022-11-13T07:41:07;1.60;;;1.50;;
51485;SDS011;37565;51.352;6.412;2022-11-13T07:43:35;1.60;;;1.50;;
51485;SDS011;37565;51.352;6.412;2022-11-13T07:46:03;5.65;;;2.30;;
51485;SDS011;37565;51.352;6.412;2022-11-13T07:48:31;2.78;;;1.83;;
51485;SDS011;37565;51.352;6.412;2022-11-13T07:50:59;1.70;;;1.60;;
51485;SDS011;37565;51.352;6.412;2022-11-13T07:53:29;2.20;;;1.85;;
51485;SDS011;37565;51.352;6.412;2022-11-13T07:55:59;1.60;;;1.50;;
51485;SDS011;37565;51.352;6.412;2022-11-13T07:58:28;1.83;;;1.70;;
51485;SDS011;37565;51.352;6.412;2022-11-13T08:01:00;3.25;;;1.70;;
51485;SDS011;37565;51.352;6.412;2022-11-13T08:03:29;2.97;;;1.80;;
51485;SDS011;37565;51.352;6.412;2022-11-13T08:06:00;4.00;;;2.17;;
51485;SDS011;37565;51.352;6.412;2022-11-13T08:08:31;1.85;;;1.75;;
51485;SDS011;37565;51.352;6.412;2022-11-13T08:11:02;4.32;;;2.05;;
51485;SDS011;37565;51.352;6.412;2022-11-13T08:13:31;2.13;;;1.88;;
51485;SDS011;37565;51.352;6.412;2022-11-13T08:15:59;2.75;;;2.05;;
51485;SDS011;37565;51.352;6.412;2022-11-13T08:18:28;2.85;;;2.22;;
51485;SDS011;37565;51.352;6.412;2022-11-13T08:20:59;2.40;;;1.98;;
51485;SDS011;37565;51.352;6.412;2022-11-13T08:23:28;6.88;;;2.47;;
51485;SDS011;37565;51.352;6.412;2022-11-13T08:26:00;2.65;;;1.90;;
51485;SDS011;37565;51.352;6.412;2022-11-13T08:28:30;4.40;;;1.80;;
51485;SDS011;37565;51.352;6.412;2022-11-13T08:30:59;2.63;;;2.20;;
51485;SDS011;37565;51.352;6.412;2022-11-13T08:33:27;3.03;;;2.10;;
51485;SDS011;37565;51.352;6.412;2022-11-13T08:35:55;2.17;;;1.98;;
51485;SDS011;37565;51.352;6.412;2022-11-13T08:38:24;2.28;;;2.08;;
51485;SDS011;37565;51.352;6.412;2022-11-13T08:40:55;3.40;;;2.17;;
51485;SDS011;37565;51.352;6.412;2022-11-13T08:43:32;2.40;;;2.05;;
51485;SDS011;37565;51.352;6.412;2022-11-13T08:46:00;3.03;;;2.08;;
51485;SDS011;37565;51.352;6.412;2022-11-13T08:48:29;2.65;;;2.10;;
51485;SDS011;37565;51.352;6.412;2022-11-13T08:50:57;4.40;;;1.80;;
51485;SDS011;37565;51.352;6.412;2022-11-13T08:53:25;2.28;;;1.80;;
51485;SDS011;37565;51.352;6.412;2022-11-13T08:55:53;2.55;;;1.95;;
51485;SDS011;37565;51.352;6.412;2022-11-13T08:58:22;4.20;;;2.15;;
51485;SDS011;37565;51.352;6.412;2022-11-13T09:00:50;2.97;;;2.30;;
51485;SDS011;37565;51.352;6.412;2022-11-13T09:03:18;3.22;;;2.00;;
51485;SDS011;37565;51.352;6.412;2022-11-13T09:05:46;3.42;;;2.00;;
51485;SDS011;37565;51.352;6.412;2022-11-13T09:08:14;4.60;;;1.90;;
51485;SDS011;37565;51.352;6.412;2022-11-13T09:10:42;2.47;;;1.90;;
51485;SDS011;37565;51.352;6.412;2022-11-13T09:13:10;2.42;;;2.13;;
51485;SDS011;37565;51.352;6.412;2022-11-13T09:15:39;2.25;;;2.05;;
51485;SDS011;37565;51.352;6.412;2022-11-13T09:18:08;2.40;;;2.20;;
51485;SDS011;37565;51.352;6.412;2022-11-13T09:20:36;2.70;;;1.83;;
51485;SDS011;37565;51.352;6.412;2022-11-13T09:23:05;2.05;;;1.80;;
51485;SDS011;37565;51.352;6.412;2022-11-13T09:25:35;2.17;;;1.98;;
51485;SDS011;37565;51.352;6.412;2022-11-13T09:28:04;4.65;;;1.90;;
51485;SDS011;37565;51.352;6.412;2022-11-13T09:30:32;2.28;;;1.95;;
51485;SDS011;37565;51.352;6.412;2022-11-13T09:33:02;2.53;;;2.03;;
51485;SDS011;37565;51.352;6.412;2022-11-13T09:35:30;2.03;;;1.90;;
51485;SDS011;37565;51.352;6.412;2022-11-13T09:38:02;2.17;;;1.98;;
51485;SDS011;37565;51.352;6.412;2022-11-13T09:40:38;1.90;;;1.70;;
51485;SDS011;37565;51.352;6.412;2022-11-13T09:43:12;1.77;;;1.67;;
51485;SDS011;37565;51.352;6.412;2022-11-13T09:45:49;3.60;;;1.92;;
51485;SDS011;37565;51.352;6.412;2022-11-13T09:48:23;2.13;;;1.92;;
51485;SDS011;37565;51.352;6.412;2022-11-13T09:50:58;2.10;;;1.90;;
51485;SDS011;37565;51.352;6.412;2022-11-13T09:53:31;1.63;;;1.52;;
51485;SDS011;37565;51.352;6.412;2022-11-13T09:56:04;1.50;;;1.40;;
51485;SDS011;37565;51.352;6.412;2022-11-13T09:58:47;3.92;;;1.65;;
51485;SDS011;37565;51.352;6.412;2022-11-13T10:01:22;2.17;;;1.60;;
51485;SDS011;37565;51.352;6.412;2022-11-13T10:03:59;1.77;;;1.58;;
51485;SDS011;37565;51.352;6.412;2022-11-13T10:06:34;5.97;;;1.90;;
51485;SDS011;37565;51.352;6.412;2022-11-13T10:09:16;1.50;;;1.40;;
51485;SDS011;37565;51.352;6.412;2022-11-13T10:11:52;3.58;;;1.80;;
51485;SDS011;37565;51.352;6.412;2022-11-13T10:14:23;3.40;;;2.25;;
51485;SDS011;37565;51.352;6.412;2022-11-13T10:17:01;1.88;;;1.75;;
51485;SDS011;37565;51.352;6.412;2022-11-13T10:19:38;3.13;;;1.80;;
51485;SDS011;37565;51.352;6.412;2022-11-13T10:22:11;4.45;;;1.70;;
51485;SDS011;37565;51.352;6.412;2022-11-13T10:25:02;2.42;;;1.98;;
51485;SDS011;37565;51.352;6.412;2022-11-13T10:27:36;4.32;;;1.65;;
51485;SDS011;37565;51.352;6.412;2022-11-13T10:30:09;3.00;;;1.98;;
51485;SDS011;37565;51.352;6.412;2022-11-13T10:32:40;3.10;;;1.95;;
51485;SDS011;37565;51.352;6.412;2022-11-13T10:35:15;3.28;;;2.25;;
51485;SDS011;37565;51.352;6.412;2022-11-13T10:37:57;2.35;;;2.10;;
51485;SDS011;37565;51.352;6.412;2022-11-13T10:40:34;3.33;;;2.08;;
51485;SDS011;37565;51.352;6.412;2022-11-13T10:43:04;2.30;;;1.95;;
51485;SDS011;37565;51.352;6.412;2022-11-13T10:45:33;1.80;;;1.70;;
51485;SDS011;37565;51.352;6.412;2022-11-13T10:48:01;4.20;;;2.28;;
51485;SDS011;37565;51.352;6.412;2022-11-13T10:50:32;5.75;;;1.88;;
51485;SDS011;37565;51.352;6.412;2022-11-13T10:53:00;3.83;;;2.10;;
51485;SDS011;37565;51.352;6.412;2022-11-13T10:55:33;3.20;;;2.15;;
51485;SDS011;37565;51.352;6.412;2022-11-13T10:58:10;1.90;;;1.70;;
51485;SDS011;37565;51.352;6.412;2022-11-13T11:00:40;4.82;;;2.00;;
51485;SDS011;37565;51.352;6.412;2022-11-13T11:03:14;3.30;;;2.00;;
51485;SDS011;37565;51.352;6.412;2022-11-13T11:05:57;2.35;;;1.77;;
51485;SDS011;37565;51.352;6.412;2022-11-13T11:08:27;2.60;;;1.88;;
51485;SDS011;37565;51.352;6.412;2022-11-13T11:10:58;2.20;;;1.85;;
51485;SDS011;37565;51.352;6.412;2022-11-13T11:13:45;2.60;;;1.73;;
51485;SDS011;37565;51.352;6.412;2022-11-13T11:16:17;2.40;;;1.67;;
51485;SDS011;37565;51.352;6.412;2022-11-13T11:18:49;3.08;;;1.45;;
51485;SDS011;37565;51.352;6.412;2022-11-13T11:21:23;7.30;;;2.10;;
51485;SDS011;37565;51.352;6.412;2022-11-13T11:23:55;2.53;;;1.75;;
51485;SDS011;37565;51.352;6.412;2022-11-13T11:26:30;1.95;;;1.75;;
51485;SDS011;37565;51.352;6.412;2022-11-13T11:29:07;3.72;;;1.30;;
51485;SDS011;37565;51.352;6.412;2022-11-13T11:31:44;2.40;;;1.63;;
51485;SDS011;37565;51.352;6.412;2022-11-13T11:34:18;3.50;;;1.52;;
51485;SDS011;37565;51.352;6.412;2022-11-13T11:36:56;2.92;;;1.75;;
51485;SDS011;37565;51.352;6.412;2022-11-13T11:39:28;3.80;;;1.70;;
51485;SDS011;37565;51.352;6.412;2022-11-13T11:42:08;1.98;;;1.73;;
51485;SDS011;37565;51.352;6.412;2022-11-13T11:44:45;5.18;;;1.58;;
51485;SDS011;37565;51.352;6.412;2022-11-13T11:47:24;4.32;;;1.70;;
51485;SDS011;37565;51.352;6.412;2022-11-13T11:49:52;1.75;;;1.52;;
51485;SDS011;37565;51.352;6.412;2022-11-13T11:52:30;1.98;;;1.30;;
51485;SDS011;37565;51.352;6.412;2022-11-13T11:55:17;4.50;;;1.70;;
51485;SDS011;37565;51.352;6.412;2022-11-13T11:58:03;4.72;;;1.42;;
51485;SDS011;37565;51.352;6.412;2022-11-13T12:00:43;2.47;;;1.38;;
51485;SDS011;37565;51.352;6.412;2022-11-13T12:03:28;2.22;;;1.35;;
51485;SDS011;37565;51.352;6.412;2022-11-13T12:06:22;4.40;;;1.60;;
51485;SDS011;37565;51.352;6.412;2022-11-13T12:09:00;3.67;;;1.40;;
51485;SDS011;37565;51.352;6.412;2022-11-13T12:11:35;1.25;;;1.15;;
51485;SDS011;37565;51.352;6.412;2022-11-13T12:14:11;1.88;;;1.35;;
51485;SDS011;37565;51.352;6.412;2022-11-13T12:16:50;2.30;;;1.38;;
51485;SDS011;37565;51.352;6.412;2022-11-13T12:19:44;2.80;;;1.50;;
51485;SDS011;37565;51.352;6.412;2022-11-13T12:22:19;5.55;;;1.52;;
51485;SDS011;37565;51.352;6.412;2022-11-13T12:25:03;1.38;;;1.25;;
51485;SDS011;37565;51.352;6.412;2022-11-13T12:27:40;2.58;;;1.55;;
51485;SDS011;37565;51.352;6.412;2022-11-13T12:30:13;2.40;;;1.30;;
51485;SDS011;37565;51.352;6.412;2022-11-13T12:35:29;2.13;;;1.60;;
51485;SDS011;37565;51.352;6.412;2022-11-13T12:37:59;3.08;;;1.50;;
51485;SDS011;37565;51.352;6.412;2022-11-13T12:40:33;2.40;;;1.52;;
51485;SDS011;37565;51.352;6.412;2022-11-13T12:43:19;3.40;;;1.15;;
51485;SDS011;37565;51.352;6.412;2022-11-13T12:46:02;1.35;;;1.20;;
51485;SDS011;37565;51.352;6.412;2022-11-13T12:48:35;2.05;;;1.20;;
51485;SDS011;37565;51.352;6.412;2022-11-13T12:51:04;2.42;;;1.20;;
51485;SDS011;37565;51.352;6.412;2022-11-13T12:53:42;2.30;;;1.40;;
51485;SDS011;37565;51.352;6.412;2022-11-13T12:56:28;5.20;;;1.50;;
51485;SDS011;37565;51.352;6.412;2022-11-13T12:58:58;3.40;;;1.20;;
51485;SDS011;37565;51.352;6.412;2022-11-13T13:01:49;1.67;;;1.23;;
51485;SDS011;37565;51.352;6.412;2022-11-13T13:07:16;3.35;;;1.25;;
51485;SDS011;37565;51.352;6.412;2022-11-13T13:10:00;2.17;;;1.45;;
51485;SDS011;37565;51.352;6.412;2022-11-13T13:12:41;1.45;;;1.15;;
51485;SDS011;37565;51.352;6.412;2022-11-13T13:15:27;3.00;;;1.13;;
51485;SDS011;37565;51.352;6.412;2022-11-13T13:18:03;3.42;;;1.20;;
51485;SDS011;37565;51.352;6.412;2022-11-13T13:20:34;2.20;;;1.20;;
51485;SDS011;37565;51.352;6.412;2022-11-13T13:23:03;1.67;;;1.10;;
51485;SDS011;37565;51.352;6.412;2022-11-13T13:25:34;1.50;;;1.40;;
51485;SDS011;37565;51.352;6.412;2022-11-13T13:28:15;3.17;;;1.05;;
51485;SDS011;37565;51.352;6.412;2022-11-13T13:30:49;1.23;;;1.13;;
51485;SDS011;37565;51.352;6.412;2022-11-13T13:33:24;1.55;;;1.30;;
51485;SDS011;37565;51.352;6.412;2022-11-13T13:36:02;1.42;;;1.05;;
51485;SDS011;37565;51.352;6.412;2022-11-13T13:38:40;3.15;;;1.33;;
51485;SDS011;37565;51.352;6.412;2022-11-13T13:41:20;1.98;;;1.30;;
51485;SDS011;37565;51.352;6.412;2022-11-13T13:44:11;4.18;;;1.33;;
51485;SDS011;37565;51.352;6.412;2022-11-13T13:46:52;1.45;;;1.20;;
51485;SDS011;37565;51.352;6.412;2022-11-13T13:49:23;4.90;;;1.55;;
51485;SDS011;37565;51.352;6.412;2022-11-13T13:51:54;1.42;;;1.17;;
51485;SDS011;37565;51.352;6.412;2022-11-13T13:54:25;2.78;;;1.05;;
51485;SDS011;37565;51.352;6.412;2022-11-13T13:56:55;1.00;;;0.90;;
51485;SDS011;37565;51.352;6.412;2022-11-13T13:59:28;1.17;;;1.02;;
51485;SDS011;37565;51.352;6.412;2022-11-13T14:01:59;1.40;;;1.30;;
51485;SDS011;37565;51.352;6.412;2022-11-13T14:04:32;1.20;;;1.08;;
51485;SDS011;37565;51.352;6.412;2022-11-13T14:07:01;1.30;;;1.20;;
51485;SDS011;37565;51.352;6.412;2022-11-13T14:09:29;2.75;;;1.25;;
51485;SDS011;37565;51.352;6.412;2022-11-13T14:11:58;1.85;;;1.10;;
51485;SDS011;37565;51.352;6.412;2022-11-13T14:14:37;1.40;;;0.98;;
51485;SDS011;37565;51.352;6.412;2022-11-13T14:17:07;1.15;;;1.08;;
51485;SDS011;37565;51.352;6.412;2022-11-13T14:19:36;1.33;;;1.08;;
51485;SDS011;37565;51.352;6.412;2022-11-13T14:22:04;1.30;;;1.20;;
51485;SDS011;37565;51.352;6.412;2022-11-13T14:24:38;1.90;;;1.15;;
51485;SDS011;37565;51.352;6.412;2022-11-13T14:27:12;2.92;;;1.15;;
51485;SDS011;37565;51.352;6.412;2022-11-13T14:29:46;1.95;;;1.50;;
51485;SDS011;37565;51.352;6.412;2022-11-13T14:32:16;9.98;;;3.00;;
51485;SDS011;37565;51.352;6.412;2022-11-13T14:34:47;18.67;;;4.57;;
51485;SDS011;37565;51.352;6.412;2022-11-13T14:37:19;13.45;;;4.57;;
51485;SDS011;37565;51.352;6.412;2022-11-13T14:39:50;18.13;;;5.35;;
51485;SDS011;37565;51.352;6.412;2022-11-13T14:42:20;14.75;;;5.38;;
51485;SDS011;37565;51.352;6.412;2022-11-13T14:44:53;15.82;;;5.35;;
51485;SDS011;37565;51.352;6.412;2022-11-13T14:47:38;24.67;;;7.90;;
51485;SDS011;37565;51.352;6.412;2022-11-13T14:50:08;40.90;;;14.57;;
51485;SDS011;37565;51.352;6.412;2022-11-13T14:52:54;63.33;;;22.02;;
51485;SDS011;37565;51.352;6.412;2022-11-13T14:55:24;70.43;;;22.30;;
51485;SDS011;37565;51.352;6.412;2022-11-13T14:57:53;64.38;;;23.50;;
51485;SDS011;37565;51.352;6.412;2022-11-13T15:00:27;68.55;;;21.98;;
51485;SDS011;37565;51.352;6.412;2022-11-13T15:02:57;69.13;;;24.80;;
51485;SDS011;37565;51.352;6.412;2022-11-13T15:05:27;101.68;;;31.10;;
51485;SDS011;37565;51.352;6.412;2022-11-13T15:07:55;86.07;;;29.85;;
51485;SDS011;37565;51.352;6.412;2022-11-13T15:10:25;98.93;;;32.75;;
51485;SDS011;37565;51.352;6.412;2022-11-13T15:12:55;105.20;;;38.50;;
51485;SDS011;37565;51.352;6.412;2022-11-13T15:15:24;105.80;;;38.67;;
51485;SDS011;37565;51.352;6.412;2022-11-13T15:17:56;113.90;;;38.03;;